^^
Meteo Knjazevac Station Historical Data
Daily Summary for June 6, 2021 Units:  Both    English   Metric
Daily Weekly Monthly Yearly Custom
  High: Low: Average:
Temperature: 76.3 °F /  24.6 °C 47.7 °F /  8.7 °C 61.2 °F /  16.2 °C
Dew Point: 55.9 °F /  13.3 °C 43.2 °F /  6.2 °C 49.5 °F /  9.7 °C
Humidity: 91% 47% 67%
Wind Speed: 8mph /  12.9km/h - 3.2mph /  5.1km/h
Wind Gust: 20mph /  32.2km/h - -
Wind- - SSE
Pressure: 30.30 in /  1026 hPa 30.19 in /  1022.2 hPa -
Precipitation: 0.00 in /  0 mm    
Historical Graphs
 
 
Tabular Data for June 6, 2021
Time Temperature Dew Point Pressure Wind Wind Speed Wind Gust Humidity Rainfall Rate (Hourly) solar Conditions
00:00 54.3 °F /  12.4 °C 45.8 °F /  7.7 °C 30.19in /  1022.2hPa Calm   1mph /  1.6km/h 73% 0.00in /  0mm 0 W/m2
00:10 54 °F /  12.2 °C 45.9 °F /  7.7 °C 30.19in /  1022.2hPa Calm   2mph /  3.2km/h 74% 0.00in /  0mm 0 W/m2
00:20 53.2 °F /  11.8 °C 45.5 °F /  7.5 °C 30.20in /  1022.6hPa Calm   3mph /  4.8km/h 75% 0.00in /  0mm 0 W/m2
00:30 52.7 °F /  11.5 °C 45 °F /  7.2 °C 30.20in /  1022.6hPa Calm   2mph /  3.2km/h 75% 0.00in /  0mm 0 W/m2
00:40 52.4 °F /  11.3 °C 45.4 °F /  7.4 °C 30.20in /  1022.6hPa Calm   2mph /  3.2km/h 77% 0.00in /  0mm 0 W/m2
00:50 52.3 °F /  11.3 °C 45.3 °F /  7.4 °C 30.20in /  1022.6hPa Calm   3mph /  4.8km/h 77% 0.00in /  0mm 0 W/m2
01:00 52.2 °F /  11.2 °C 45.2 °F /  7.3 °C 30.20in /  1022.6hPa Calm   2mph /  3.2km/h 77% 0.00in /  0mm 0 W/m2
01:10 51.8 °F /  11 °C 45.2 °F /  7.3 °C 30.20in /  1022.6hPa Calm   2mph /  3.2km/h 78% 0.00in /  0mm 0 W/m2
01:20 51.6 °F /  10.9 °C 45 °F /  7.2 °C 30.21in /  1022.9hPa Calm   2mph /  3.2km/h 78% 0.00in /  0mm 0 W/m2
01:30 51.3 °F /  10.7 °C 44.6 °F /  7 °C 30.21in /  1022.9hPa Calm   2mph /  3.2km/h 78% 0.00in /  0mm 0 W/m2
01:40 50.9 °F /  10.5 °C 44.6 °F /  7 °C 30.21in /  1022.9hPa WNW 1mph /  1.6km/h 3mph /  4.8km/h 79% 0.00in /  0mm 0 W/m2
01:50 50.4 °F /  10.2 °C 44.4 °F /  6.9 °C 30.21in /  1022.9hPa NW 2mph /  3.2km/h 3mph /  4.8km/h 80% 0.00in /  0mm 0 W/m2
02:00 50.7 °F /  10.4 °C 44.8 °F /  7.1 °C 30.21in /  1022.9hPa Calm   3mph /  4.8km/h 80% 0.00in /  0mm 0 W/m2
02:10 50.6 °F /  10.3 °C 44.9 °F /  7.2 °C 30.21in /  1022.9hPa NE 1mph /  1.6km/h 2mph /  3.2km/h 81% 0.00in /  0mm 0 W/m2
02:20 50.7 °F /  10.4 °C 44.8 °F /  7.1 °C 30.22in /  1023.2hPa NNE 1mph /  1.6km/h 3mph /  4.8km/h 80% 0.00in /  0mm 0 W/m2
02:30 50.2 °F /  10.1 °C 44.3 °F /  6.8 °C 30.22in /  1023.2hPa Calm   1mph /  1.6km/h 80% 0.00in /  0mm 0 W/m2
02:40 49.8 °F /  9.9 °C 43.9 °F /  6.6 °C 30.23in /  1023.6hPa Calm   1mph /  1.6km/h 80% 0.00in /  0mm 0 W/m2
02:50 49.6 °F /  9.8 °C 44 °F /  6.7 °C 30.23in /  1023.6hPa NW 1mph /  1.6km/h 2mph /  3.2km/h 81% 0.00in /  0mm 0 W/m2
03:00 49.3 °F /  9.6 °C 43.7 °F /  6.5 °C 30.23in /  1023.6hPa West 1mph /  1.6km/h 2mph /  3.2km/h 81% 0.00in /  0mm 0 W/m2
03:10 49.1 °F /  9.5 °C 44.2 °F /  6.8 °C 30.24in /  1023.9hPa WNW 2mph /  3.2km/h 3mph /  4.8km/h 83% 0.00in /  0mm 0 W/m2
03:20 48.9 °F /  9.4 °C 44 °F /  6.7 °C 30.24in /  1023.9hPa West 1mph /  1.6km/h 4mph /  6.4km/h 83% 0.00in /  0mm 0 W/m2
03:30 48.9 °F /  9.4 °C 44.3 °F /  6.8 °C 30.24in /  1023.9hPa WNW 1mph /  1.6km/h 3mph /  4.8km/h 84% 0.00in /  0mm 0 W/m2
03:40 48.6 °F /  9.2 °C 43.6 °F /  6.4 °C 30.24in /  1023.9hPa WNW 1mph /  1.6km/h 3mph /  4.8km/h 83% 0.00in /  0mm 0 W/m2
03:50 48.2 °F /  9 °C 43.6 °F /  6.4 °C 30.25in /  1024.3hPa West 1mph /  1.6km/h 3mph /  4.8km/h 84% 0.00in /  0mm 0 W/m2
04:00 47.8 °F /  8.8 °C 43.2 °F /  6.2 °C 30.25in /  1024.3hPa NW 1mph /  1.6km/h 2mph /  3.2km/h 84% 0.00in /  0mm 0 W/m2
04:10 47.7 °F /  8.7 °C 43.7 °F /  6.5 °C 30.25in /  1024.3hPa NW 2mph /  3.2km/h 3mph /  4.8km/h 86% 0.00in /  0mm 0 W/m2
04:20 47.8 °F /  8.8 °C 44.5 °F /  6.9 °C 30.25in /  1024.3hPa WSW 1mph /  1.6km/h 4mph /  6.4km/h 88% 0.00in /  0mm 0 W/m2
04:30 48.2 °F /  9 °C 44.8 °F /  7.1 °C 30.25in /  1024.3hPa Calm   2mph /  3.2km/h 88% 0.00in /  0mm 0 W/m2
04:40 48 °F /  8.9 °C 43.7 °F /  6.5 °C 30.25in /  1024.3hPa Calm   2mph /  3.2km/h 85% 0.00in /  0mm 0 W/m2
04:50 47.8 °F /  8.8 °C 43.6 °F /  6.4 °C 30.25in /  1024.3hPa North 1mph /  1.6km/h 2mph /  3.2km/h 85% 0.00in /  0mm 0 W/m2
05:00 47.8 °F /  8.8 °C 43.9 °F /  6.6 °C 30.25in /  1024.3hPa Calm   2mph /  3.2km/h 86% 0.00in /  0mm 0 W/m2
05:10 48.2 °F /  9 °C 44.8 °F /  7.1 °C 30.25in /  1024.3hPa Calm   2mph /  3.2km/h 88% 0.00in /  0mm 0 W/m2
05:20 48 °F /  8.9 °C 44.6 °F /  7 °C 30.25in /  1024.3hPa NNW 1mph /  1.6km/h 2mph /  3.2km/h 88% 0.00in /  0mm 0 W/m2
05:30 48.4 °F /  9.1 °C 45.3 °F /  7.4 °C 30.25in /  1024.3hPa Calm   2mph /  3.2km/h 89% 0.00in /  0mm 0 W/m2
05:40 48.4 °F /  9.1 °C 45 °F /  7.2 °C 30.26in /  1024.6hPa Calm   2mph /  3.2km/h 88% 0.00in /  0mm 0 W/m2
05:50 48.4 °F /  9.1 °C 44.4 °F /  6.9 °C 30.26in /  1024.6hPa North 1mph /  1.6km/h 3mph /  4.8km/h 86% 0.00in /  0mm 0 W/m2
06:00 48.2 °F /  9 °C 44.8 °F /  7.1 °C 30.26in /  1024.6hPa WSW 1mph /  1.6km/h 3mph /  4.8km/h 88% 0.00in /  0mm 3 W/m2
06:10 48.2 °F /  9 °C 44.8 °F /  7.1 °C 30.26in /  1024.6hPa NNE 1mph /  1.6km/h 2mph /  3.2km/h 88% 0.00in /  0mm 9 W/m2
06:20 48 °F /  8.9 °C 44 °F /  6.7 °C 30.27in /  1024.9hPa NW 1mph /  1.6km/h 2mph /  3.2km/h 86% 0.00in /  0mm 18 W/m2
06:30 48 °F /  8.9 °C 44.6 °F /  7 °C 30.27in /  1024.9hPa Calm   2mph /  3.2km/h 88% 0.00in /  0mm 29 W/m2
06:40 48 °F /  8.9 °C 44.6 °F /  7 °C 30.27in /  1024.9hPa Calm   3mph /  4.8km/h 88% 0.00in /  0mm 40 W/m2
06:50 48.4 °F /  9.1 °C 45.6 °F /  7.6 °C 30.28in /  1025.3hPa NNE 1mph /  1.6km/h 4mph /  6.4km/h 90% 0.00in /  0mm 66 W/m2
07:00 48.4 °F /  9.1 °C 45.6 °F /  7.6 °C 30.28in /  1025.3hPa Calm   6mph /  9.7km/h 90% 0.00in /  0mm 93 W/m2
07:10 48.6 °F /  9.2 °C 45.8 °F /  7.7 °C 30.28in /  1025.3hPa SW 1mph /  1.6km/h 2mph /  3.2km/h 90% 0.00in /  0mm 117 W/m2
07:20 48.7 °F /  9.3 °C 45.9 °F /  7.7 °C 30.29in /  1025.6hPa Calm   2mph /  3.2km/h 90% 0.00in /  0mm 145 W/m2
07:30 49.1 °F /  9.5 °C 46.3 °F /  7.9 °C 30.29in /  1025.6hPa Calm   2mph /  3.2km/h 90% 0.00in /  0mm 171 W/m2
07:40 49.5 °F /  9.7 °C 47 °F /  8.3 °C 30.29in /  1025.6hPa Calm   1mph /  1.6km/h 91% 0.00in /  0mm 201 W/m2
07:50 50 °F /  10 °C 47.2 °F /  8.4 °C 30.29in /  1025.6hPa Calm   2mph /  3.2km/h 90% 0.00in /  0mm 231 W/m2
08:00 50.7 °F /  10.4 °C 47.9 °F /  8.8 °C 30.29in /  1025.6hPa NW 1mph /  1.6km/h 2mph /  3.2km/h 90% 0.00in /  0mm 269 W/m2
08:10 51.6 °F /  10.9 °C 48.8 °F /  9.3 °C 30.29in /  1025.6hPa Calm   2mph /  3.2km/h 90% 0.00in /  0mm 303 W/m2
08:20 52.7 °F /  11.5 °C 49.6 °F /  9.8 °C 30.28in /  1025.3hPa South 1mph /  1.6km/h 6mph /  9.7km/h 89% 0.00in /  0mm 336 W/m2
08:30 54.7 °F /  12.6 °C 51.2 °F /  10.7 °C 30.28in /  1025.3hPa NNE 1mph /  1.6km/h 8mph /  12.9km/h 88% 0.00in /  0mm 368 W/m2
08:40 57.6 °F /  14.2 °C 51.8 °F /  11 °C 30.29in /  1025.6hPa North 6mph /  9.7km/h 13mph /  20.9km/h 81% 0.00in /  0mm 405 W/m2
08:50 59.7 °F /  15.4 °C 52.5 °F /  11.4 °C 30.29in /  1025.6hPa North 8mph /  12.9km/h 13mph /  20.9km/h 77% 0.00in /  0mm 437 W/m2
09:00 61.2 °F /  16.2 °C 52.8 °F /  11.6 °C 30.29in /  1025.6hPa North 7mph /  11.3km/h 14mph /  22.5km/h 74% 0.00in /  0mm 473 W/m2
09:10 62.2 °F /  16.8 °C 53.1 °F /  11.7 °C 30.29in /  1025.6hPa North 7mph /  11.3km/h 14mph /  22.5km/h 72% 0.00in /  0mm 503 W/m2
09:20 63.1 °F /  17.3 °C 52.8 °F /  11.6 °C 30.30in /  1026hPa North 6mph /  9.7km/h 15mph /  24.1km/h 69% 0.00in /  0mm 538 W/m2
09:30 64 °F /  17.8 °C 53.3 °F /  11.8 °C 30.30in /  1026hPa North 5mph /  8km/h 13mph /  20.9km/h 68% 0.00in /  0mm 564 W/m2
09:40 64.8 °F /  18.2 °C 52.7 °F /  11.5 °C 30.29in /  1025.6hPa North 8mph /  12.9km/h 15mph /  24.1km/h 65% 0.00in /  0mm 594 W/m2
09:50 65.1 °F /  18.4 °C 52.7 °F /  11.5 °C 30.30in /  1026hPa North 7mph /  11.3km/h 15mph /  24.1km/h 64% 0.00in /  0mm 617 W/m2
10:00 65.5 °F /  18.6 °C 52.5 °F /  11.4 °C 30.30in /  1026hPa North 7mph /  11.3km/h 16mph /  25.7km/h 63% 0.00in /  0mm 293 W/m2
10:10 65.5 °F /  18.6 °C 52.5 °F /  11.4 °C 30.30in /  1026hPa North 8mph /  12.9km/h 16mph /  25.7km/h 63% 0.00in /  0mm 328 W/m2
10:20 65.1 °F /  18.4 °C 52.2 °F /  11.2 °C 30.30in /  1026hPa North 8mph /  12.9km/h 15mph /  24.1km/h 63% 0.00in /  0mm 484 W/m2
10:30 65.3 °F /  18.5 °C 51.9 °F /  11.1 °C 30.30in /  1026hPa North 7mph /  11.3km/h 15mph /  24.1km/h 62% 0.00in /  0mm 377 W/m2
10:40 65.1 °F /  18.4 °C 51.8 °F /  11 °C 30.30in /  1026hPa North 7mph /  11.3km/h 16mph /  25.7km/h 62% 0.00in /  0mm 489 W/m2
10:50 65.8 °F /  18.8 °C 52.5 °F /  11.4 °C 30.30in /  1026hPa North 7mph /  11.3km/h 16mph /  25.7km/h 62% 0.00in /  0mm 413 W/m2
11:00 66.7 °F /  19.3 °C 52.4 °F /  11.3 °C 30.30in /  1026hPa North 8mph /  12.9km/h 16mph /  25.7km/h 60% 0.00in /  0mm 748 W/m2
11:10 67.6 °F /  19.8 °C 52.8 °F /  11.6 °C 30.30in /  1026hPa North 5mph /  8km/h 17mph /  27.4km/h 59% 0.00in /  0mm 392 W/m2
11:20 68.2 °F /  20.1 °C 52.8 °F /  11.6 °C 30.29in /  1025.6hPa North 8mph /  12.9km/h 14mph /  22.5km/h 58% 0.00in /  0mm 773 W/m2
11:30 68.7 °F /  20.4 °C 53.3 °F /  11.8 °C 30.30in /  1026hPa North 7mph /  11.3km/h 17mph /  27.4km/h 58% 0.00in /  0mm 783 W/m2
11:40 69.3 °F /  20.7 °C 53.4 °F /  11.9 °C 30.29in /  1025.6hPa North 8mph /  12.9km/h 15mph /  24.1km/h 57% 0.00in /  0mm 792 W/m2
11:50 69.6 °F /  20.9 °C 53.7 °F /  12.1 °C 30.28in /  1025.3hPa North 7mph /  11.3km/h 15mph /  24.1km/h 57% 0.00in /  0mm 799 W/m2
12:00 70 °F /  21.1 °C 54 °F /  12.2 °C 30.28in /  1025.3hPa North 6mph /  9.7km/h 15mph /  24.1km/h 57% 0.00in /  0mm 804 W/m2
12:10 70.5 °F /  21.4 °C 55 °F /  12.8 °C 30.28in /  1025.3hPa North 7mph /  11.3km/h 17mph /  27.4km/h 58% 0.00in /  0mm 775 W/m2
12:20 71.1 °F /  21.7 °C 55.1 °F /  12.8 °C 30.28in /  1025.3hPa North 6mph /  9.7km/h 17mph /  27.4km/h 57% 0.00in /  0mm 519 W/m2
12:30 70.9 °F /  21.6 °C 54.9 °F /  12.7 °C 30.28in /  1025.3hPa North 8mph /  12.9km/h 13mph /  20.9km/h 57% 0.00in /  0mm 574 W/m2
12:40 71.4 °F /  21.9 °C 55.9 °F /  13.3 °C 30.27in /  1024.9hPa North 6mph /  9.7km/h 14mph /  22.5km/h 58% 0.00in /  0mm 809 W/m2
12:50 71.4 °F /  21.9 °C 55.4 °F /  13 °C 30.27in /  1024.9hPa NNE 7mph /  11.3km/h 18mph /  29km/h 57% 0.00in /  0mm 806 W/m2
13:00 72.5 °F /  22.5 °C 55.4 °F /  13 °C 30.27in /  1024.9hPa North 7mph /  11.3km/h 15mph /  24.1km/h 55% 0.00in /  0mm 802 W/m2
13:10 73.4 °F /  23 °C 55.8 °F /  13.2 °C 30.27in /  1024.9hPa North 8mph /  12.9km/h 17mph /  27.4km/h 54% 0.00in /  0mm 796 W/m2
13:20 73.6 °F /  23.1 °C 55.4 °F /  13 °C 30.26in /  1024.6hPa North 7mph /  11.3km/h 14mph /  22.5km/h 53% 0.00in /  0mm 788 W/m2
13:30 73.4 °F /  23 °C 54.7 °F /  12.6 °C 30.26in /  1024.6hPa North 5mph /  8km/h 14mph /  22.5km/h 52% 0.00in /  0mm 779 W/m2
13:40 73.8 °F /  23.2 °C 55.6 °F /  13.1 °C 30.26in /  1024.6hPa North 7mph /  11.3km/h 17mph /  27.4km/h 53% 0.00in /  0mm 768 W/m2
13:50 74.3 °F /  23.5 °C 55.5 °F /  13.1 °C 30.26in /  1024.6hPa North 7mph /  11.3km/h 16mph /  25.7km/h 52% 0.00in /  0mm 456 W/m2
14:00 74.7 °F /  23.7 °C 55.9 °F /  13.3 °C 30.26in /  1024.6hPa North 6mph /  9.7km/h 17mph /  27.4km/h 52% 0.00in /  0mm 740 W/m2
14:10 75 °F /  23.9 °C 54.6 °F /  12.6 °C 30.25in /  1024.3hPa North 6mph /  9.7km/h 17mph /  27.4km/h 49% 0.00in /  0mm 725 W/m2
14:20 75.2 °F /  24 °C 55.3 °F /  12.9 °C 30.25in /  1024.3hPa North 7mph /  11.3km/h 15mph /  24.1km/h 50% 0.00in /  0mm 659 W/m2
14:30 74.8 °F /  23.8 °C 54.4 °F /  12.4 °C 30.25in /  1024.3hPa North 8mph /  12.9km/h 20mph /  32.2km/h 49% 0.00in /  0mm 690 W/m2
14:40 75 °F /  23.9 °C 54.6 °F /  12.6 °C 30.25in /  1024.3hPa North 8mph /  12.9km/h 20mph /  32.2km/h 49% 0.00in /  0mm 671 W/m2
14:50 75 °F /  23.9 °C 54.6 °F /  12.6 °C 30.25in /  1024.3hPa North 7mph /  11.3km/h 15mph /  24.1km/h 49% 0.00in /  0mm 650 W/m2
15:00 75.2 °F /  24 °C 54.7 °F /  12.6 °C 30.25in /  1024.3hPa North 8mph /  12.9km/h 16mph /  25.7km/h 49% 0.00in /  0mm 628 W/m2
15:10 75.6 °F /  24.2 °C 55.1 °F /  12.8 °C 30.25in /  1024.3hPa North 7mph /  11.3km/h 15mph /  24.1km/h 49% 0.00in /  0mm 584 W/m2
15:20 75.8 °F /  24.3 °C 55.2 °F /  12.9 °C 30.25in /  1024.3hPa North 5mph /  8km/h 15mph /  24.1km/h 49% 0.00in /  0mm 580 W/m2
15:30 76.3 °F /  24.6 °C 55.1 °F /  12.8 °C 30.25in /  1024.3hPa North 8mph /  12.9km/h 15mph /  24.1km/h 48% 0.00in /  0mm 555 W/m2
15:40 76.1 °F /  24.5 °C 55 °F /  12.8 °C 30.25in /  1024.3hPa North 7mph /  11.3km/h 15mph /  24.1km/h 48% 0.00in /  0mm 528 W/m2
15:50 76.3 °F /  24.6 °C 54.6 °F /  12.6 °C 30.24in /  1023.9hPa North 6mph /  9.7km/h 13mph /  20.9km/h 47% 0.00in /  0mm 501 W/m2
16:00 75.9 °F /  24.4 °C 54.2 °F /  12.3 °C 30.24in /  1023.9hPa North 7mph /  11.3km/h 14mph /  22.5km/h 47% 0.00in /  0mm 222 W/m2
16:10 75 °F /  23.9 °C 54 °F /  12.2 °C 30.24in /  1023.9hPa North 7mph /  11.3km/h 15mph /  24.1km/h 48% 0.00in /  0mm 445 W/m2
16:20 75 °F /  23.9 °C 54 °F /  12.2 °C 30.24in /  1023.9hPa North 6mph /  9.7km/h 14mph /  22.5km/h 48% 0.00in /  0mm 415 W/m2
16:30 74.8 °F /  23.8 °C 53.8 °F /  12.1 °C 30.24in /  1023.9hPa North 6mph /  9.7km/h 15mph /  24.1km/h 48% 0.00in /  0mm 385 W/m2
16:40 74.8 °F /  23.8 °C 53.8 °F /  12.1 °C 30.25in /  1024.3hPa North 7mph /  11.3km/h 15mph /  24.1km/h 48% 0.00in /  0mm 355 W/m2
16:50 74.7 °F /  23.7 °C 53.7 °F /  12.1 °C 30.25in /  1024.3hPa North 5mph /  8km/h 13mph /  20.9km/h 48% 0.00in /  0mm 325 W/m2
17:00 74.7 °F /  23.7 °C 53.7 °F /  12.1 °C 30.25in /  1024.3hPa North 6mph /  9.7km/h 14mph /  22.5km/h 48% 0.00in /  0mm 294 W/m2
17:10 74.5 °F /  23.6 °C 53.5 °F /  11.9 °C 30.25in /  1024.3hPa North 5mph /  8km/h 14mph /  22.5km/h 48% 0.00in /  0mm 264 W/m2
17:20 74.3 °F /  23.5 °C 53.3 °F /  11.8 °C 30.25in /  1024.3hPa North 3mph /  4.8km/h 12mph /  19.3km/h 48% 0.00in /  0mm 233 W/m2
17:30 73.9 °F /  23.3 °C 53 °F /  11.7 °C 30.25in /  1024.3hPa North 7mph /  11.3km/h 12mph /  19.3km/h 48% 0.00in /  0mm 193 W/m2
17:40 73.4 °F /  23 °C 53.1 °F /  11.7 °C 30.25in /  1024.3hPa North 6mph /  9.7km/h 12mph /  19.3km/h 49% 0.00in /  0mm 159 W/m2
17:50 73 °F /  22.8 °C 52.7 °F /  11.5 °C 30.25in /  1024.3hPa North 5mph /  8km/h 15mph /  24.1km/h 49% 0.00in /  0mm 127 W/m2
18:00 72.5 °F /  22.5 °C 52.2 °F /  11.2 °C 30.25in /  1024.3hPa North 5mph /  8km/h 12mph /  19.3km/h 49% 0.00in /  0mm 99 W/m2
18:10 72 °F /  22.2 °C 51.8 °F /  11 °C 30.25in /  1024.3hPa North 5mph /  8km/h 12mph /  19.3km/h 49% 0.00in /  0mm 73 W/m2
18:20 71.4 °F /  21.9 °C 51.2 °F /  10.7 °C 30.25in /  1024.3hPa North 3mph /  4.8km/h 8mph /  12.9km/h 49% 0.00in /  0mm 51 W/m2
18:30 70.9 °F /  21.6 °C 50.8 °F /  10.4 °C 30.25in /  1024.3hPa North 3mph /  4.8km/h 7mph /  11.3km/h 49% 0.00in /  0mm 31 W/m2
18:40 70.3 °F /  21.3 °C 50.8 °F /  10.4 °C 30.25in /  1024.3hPa North 5mph /  8km/h 10mph /  16.1km/h 50% 0.00in /  0mm 18 W/m2
18:50 69.8 °F /  21 °C 50.3 °F /  10.2 °C 30.25in /  1024.3hPa North 5mph /  8km/h 9mph /  14.5km/h 50% 0.00in /  0mm 7 W/m2
19:00 69.3 °F /  20.7 °C 50.9 °F /  10.5 °C 30.25in /  1024.3hPa North 3mph /  4.8km/h 10mph /  16.1km/h 52% 0.00in /  0mm 0 W/m2
19:10 68.7 °F /  20.4 °C 50.4 °F /  10.2 °C 30.25in /  1024.3hPa North 3mph /  4.8km/h 10mph /  16.1km/h 52% 0.00in /  0mm 0 W/m2
19:20 68.4 °F /  20.2 °C 50 °F /  10 °C 30.25in /  1024.3hPa North 3mph /  4.8km/h 8mph /  12.9km/h 52% 0.00in /  0mm 0 W/m2
19:30 68 °F /  20 °C 50.2 °F /  10.1 °C 30.25in /  1024.3hPa North 5mph /  8km/h 8mph /  12.9km/h 53% 0.00in /  0mm 0 W/m2
19:40 67.5 °F /  19.7 °C 49.7 °F /  9.8 °C 30.26in /  1024.6hPa North 3mph /  4.8km/h 7mph /  11.3km/h 53% 0.00in /  0mm 0 W/m2
19:50 67.1 °F /  19.5 °C 49.9 °F /  9.9 °C 30.26in /  1024.6hPa North 1mph /  1.6km/h 9mph /  14.5km/h 54% 0.00in /  0mm 0 W/m2
20:00 66.3 °F /  19.1 °C 50.6 °F /  10.3 °C 30.26in /  1024.6hPa SE 1mph /  1.6km/h 5mph /  8km/h 57% 0.00in /  0mm 0 W/m2
20:10 65.4 °F /  18.6 °C 49.8 °F /  9.9 °C 30.26in /  1024.6hPa NNW 1mph /  1.6km/h 3mph /  4.8km/h 57% 0.00in /  0mm 0 W/m2
20:20 64.8 °F /  18.2 °C 49.6 °F /  9.8 °C 30.27in /  1024.9hPa SE 2mph /  3.2km/h 5mph /  8km/h 58% 0.00in /  0mm 0 W/m2
20:30 64.2 °F /  17.9 °C 49.5 °F /  9.7 °C 30.27in /  1024.9hPa North 1mph /  1.6km/h 4mph /  6.4km/h 59% 0.00in /  0mm 0 W/m2
20:40 63.5 °F /  17.5 °C 49.4 °F /  9.7 °C 30.27in /  1024.9hPa South 3mph /  4.8km/h 5mph /  8km/h 60% 0.00in /  0mm 0 W/m2
20:50 62.8 °F /  17.1 °C 49.6 °F /  9.8 °C 30.28in /  1025.3hPa Calm   3mph /  4.8km/h 62% 0.00in /  0mm 0 W/m2
21:00 62.1 °F /  16.7 °C 48.9 °F /  9.4 °C 30.27in /  1024.9hPa Calm   2mph /  3.2km/h 62% 0.00in /  0mm 0 W/m2
21:10 61.3 °F /  16.3 °C 48.6 °F /  9.2 °C 30.28in /  1025.3hPa Calm   2mph /  3.2km/h 63% 0.00in /  0mm 0 W/m2
21:20 60.6 °F /  15.9 °C 48.4 °F /  9.1 °C 30.28in /  1025.3hPa NW 1mph /  1.6km/h 3mph /  4.8km/h 64% 0.00in /  0mm 0 W/m2
21:30 60.2 °F /  15.7 °C 48.4 °F /  9.1 °C 30.28in /  1025.3hPa Calm   2mph /  3.2km/h 65% 0.00in /  0mm 0 W/m2
21:40 59.7 °F /  15.4 °C 47.9 °F /  8.8 °C 30.28in /  1025.3hPa NNW 1mph /  1.6km/h 2mph /  3.2km/h 65% 0.00in /  0mm 0 W/m2
21:50 59 °F /  15 °C 48.4 °F /  9.1 °C 30.28in /  1025.3hPa WNW 1mph /  1.6km/h 2mph /  3.2km/h 68% 0.00in /  0mm 0 W/m2
22:00 58.5 °F /  14.7 °C 47.9 °F /  8.8 °C 30.28in /  1025.3hPa Calm   2mph /  3.2km/h 68% 0.00in /  0mm 0 W/m2
22:10 57.9 °F /  14.4 °C 47.8 °F /  8.8 °C 30.28in /  1025.3hPa Calm   2mph /  3.2km/h 69% 0.00in /  0mm 0 W/m2
22:20 57.3 °F /  14.1 °C 47.6 °F /  8.7 °C 30.29in /  1025.6hPa Calm   2mph /  3.2km/h 70% 0.00in /  0mm 0 W/m2
22:30 56.8 °F /  13.8 °C 47.1 °F /  8.4 °C 30.28in /  1025.3hPa Calm   2mph /  3.2km/h 70% 0.00in /  0mm 0 W/m2
22:40 56.1 °F /  13.4 °C 47.2 °F /  8.4 °C 30.29in /  1025.6hPa Calm   2mph /  3.2km/h 72% 0.00in /  0mm 0 W/m2
22:50 55.6 °F /  13.1 °C 46.7 °F /  8.2 °C 30.29in /  1025.6hPa Calm   2mph /  3.2km/h 72% 0.00in /  0mm 0 W/m2
23:10 54.5 °F /  12.5 °C 46.4 °F /  8 °C 30.29in /  1025.6hPa WNW 1mph /  1.6km/h 2mph /  3.2km/h 74% 0.00in /  0mm 0 W/m2
23:20 54.1 °F /  12.3 °C 46 °F /  7.8 °C 30.29in /  1025.6hPa Calm   2mph /  3.2km/h 74% 0.00in /  0mm 0 W/m2
23:30 53.8 °F /  12.1 °C 45.7 °F /  7.6 °C 30.29in /  1025.6hPa Calm   1mph /  1.6km/h 74% 0.00in /  0mm 0 W/m2
23:40 53.4 °F /  11.9 °C 45.7 °F /  7.6 °C 30.30in /  1026hPa Calm     75% 0.00in /  0mm 0 W/m2
23:50 53.1 °F /  11.7 °C 45.3 °F /  7.4 °C 30.30in /  1026hPa Calm   2mph /  3.2km/h 75% 0.00in /  0mm 0 W/m2
Knjazevac, Serbia
Compliments of Weather Underground - 2 mb